createdAt,value
2022-10-13T00:00:45.057Z,19.92
2022-10-13T00:03:11.880Z,17.42
2022-10-13T00:05:44.071Z,17.23
2022-10-13T00:08:12.250Z,19.08
2022-10-13T00:10:40.489Z,22.70
2022-10-13T00:13:08.440Z,14.93
2022-10-13T00:15:44.096Z,20.40
2022-10-13T00:18:10.795Z,18.98
2022-10-13T00:20:45.308Z,20.15
2022-10-13T00:23:11.933Z,19.08
2022-10-13T00:25:43.170Z,18.15
2022-10-13T00:28:10.316Z,19.00
2022-10-13T00:30:37.538Z,24.50
2022-10-13T00:33:04.404Z,19.73
2022-10-13T00:35:31.075Z,20.85
2022-10-13T00:37:57.691Z,16.52
2022-10-13T00:40:24.310Z,22.27
2022-10-13T00:42:51.075Z,26.42
2022-10-13T00:45:17.594Z,15.98
2022-10-13T00:47:49.163Z,20.33
2022-10-13T00:50:19.590Z,19.75
2022-10-13T00:52:49.591Z,17.42
2022-10-13T00:55:19.302Z,16.90
2022-10-13T00:57:48.285Z,16.15
2022-10-13T01:00:15.204Z,18.20
2022-10-13T01:02:41.837Z,17.35
2022-10-13T01:05:08.912Z,20.52
2022-10-13T01:07:35.968Z,21.30
2022-10-13T01:10:04.215Z,21.73
2022-10-13T01:12:47.780Z,17.88
2022-10-13T01:15:29.072Z,17.23
2022-10-13T01:18:22.613Z,18.52
2022-10-13T01:21:15.690Z,21.27
2022-10-13T01:23:54.127Z,15.63
2022-10-13T01:27:01.184Z,20.20
2022-10-13T01:30:05.249Z,18.80
2022-10-13T01:32:50.420Z,16.67
2022-10-13T01:35:43.028Z,20.58
2022-10-13T01:38:24.853Z,18.17
2022-10-13T01:40:54.477Z,19.25
2022-10-13T01:43:25.892Z,18.10
2022-10-13T01:46:03.395Z,17.50
2022-10-13T01:48:31.048Z,20.10
2022-10-13T01:50:59.762Z,21.52
2022-10-13T01:53:27.450Z,19.08
2022-10-13T01:55:59.805Z,21.63
2022-10-13T01:58:29.979Z,19.05
2022-10-13T02:01:03.425Z,18.88
2022-10-13T02:03:45.582Z,17.48
2022-10-13T02:06:22.652Z,18.00
2022-10-13T02:08:55.225Z,23.40
2022-10-13T02:11:23.508Z,18.13
2022-10-13T02:13:54.073Z,17.23
2022-10-13T02:16:23.495Z,19.88
2022-10-13T02:18:51.129Z,15.73
2022-10-13T02:21:18.147Z,17.30
2022-10-13T02:23:45.777Z,17.35
2022-10-13T02:26:13.832Z,19.02
2022-10-13T02:28:40.983Z,20.17
2022-10-13T02:31:10.597Z,23.27
2022-10-13T02:33:37.445Z,20.58
2022-10-13T02:36:04.362Z,19.17
2022-10-13T02:38:31.056Z,23.65
2022-10-13T02:40:57.876Z,16.48
2022-10-13T02:43:24.448Z,20.65
2022-10-13T02:45:51.408Z,15.75
2022-10-13T02:48:17.972Z,17.75
2022-10-13T02:50:44.537Z,19.73
2022-10-13T02:53:11.097Z,16.35
2022-10-13T02:55:37.684Z,17.70
2022-10-13T02:58:04.348Z,16.20
2022-10-13T03:00:31.386Z,23.45
2022-10-13T03:02:58.077Z,21.67
2022-10-13T03:05:24.669Z,16.83
2022-10-13T03:07:51.226Z,16.92
2022-10-13T03:10:17.973Z,18.95
2022-10-13T03:12:44.556Z,20.77
2022-10-13T03:15:11.111Z,18.45
2022-10-13T03:17:37.667Z,20.60
2022-10-13T03:20:04.883Z,19.23
2022-10-13T03:22:32.928Z,20.70
2022-10-13T03:24:59.771Z,17.65
2022-10-13T03:27:26.343Z,23.05
2022-10-13T03:29:52.903Z,18.52
2022-10-13T03:32:19.624Z,18.92
2022-10-13T03:34:46.346Z,22.92
2022-10-13T03:37:12.916Z,17.70
2022-10-13T03:39:39.483Z,18.23
2022-10-13T03:42:06.084Z,20.05
2022-10-13T03:44:32.827Z,21.48
2022-10-13T03:46:59.416Z,19.13
2022-10-13T03:49:26.022Z,19.38
2022-10-13T03:51:52.592Z,19.13
2022-10-13T03:54:19.148Z,17.75
2022-10-13T03:56:45.828Z,22.08
2022-10-13T03:59:13.471Z,20.55
2022-10-13T04:01:40.406Z,19.90
2022-10-13T04:04:07.824Z,16.67
2022-10-13T04:06:34.408Z,20.48
2022-10-13T04:09:01.007Z,16.98
2022-10-13T04:11:27.601Z,19.10
2022-10-13T04:13:56.228Z,20.40
2022-10-13T04:16:25.226Z,19.92
2022-10-13T04:18:58.265Z,21.08
2022-10-13T04:21:25.490Z,25.50
2022-10-13T04:23:55.060Z,19.08
2022-10-13T04:26:22.950Z,20.38
2022-10-13T04:28:51.086Z,19.35
2022-10-13T04:31:18.453Z,21.33
2022-10-13T04:33:45.750Z,19.33
2022-10-13T04:36:13.996Z,16.92
2022-10-13T04:38:44.209Z,21.60
2022-10-13T04:41:12.070Z,20.63
2022-10-13T04:43:38.658Z,21.10
2022-10-13T04:46:14.824Z,16.98
2022-10-13T04:48:41.974Z,23.55
2022-10-13T04:51:11.367Z,20.00
2022-10-13T04:53:38.549Z,24.80
2022-10-13T04:56:08.448Z,21.23
2022-10-13T04:58:36.057Z,21.25
2022-10-13T05:01:04.468Z,24.45
2022-10-13T05:03:31.278Z,19.63
2022-10-13T05:05:58.019Z,20.00
2022-10-13T05:08:24.827Z,22.30
2022-10-13T05:10:59.995Z,18.05
2022-10-13T05:13:27.709Z,21.98
2022-10-13T05:15:54.301Z,21.60
2022-10-13T05:18:20.882Z,21.52
2022-10-13T05:20:47.505Z,17.92
2022-10-13T05:23:15.486Z,19.23
2022-10-13T05:25:42.504Z,25.30
2022-10-13T05:28:09.368Z,20.20
2022-10-13T05:30:35.987Z,18.10
2022-10-13T05:33:02.887Z,23.95
2022-10-13T05:35:29.449Z,23.42
2022-10-13T05:37:56.103Z,18.92
2022-10-13T05:40:22.679Z,25.60
2022-10-13T05:42:53.220Z,20.70
2022-10-13T05:45:21.437Z,22.75
2022-10-13T05:47:48.030Z,25.45
2022-10-13T05:50:14.676Z,24.45
2022-10-13T05:52:42.070Z,22.02
2022-10-13T05:55:12.968Z,23.63
2022-10-13T05:57:43.702Z,23.20
2022-10-13T06:00:14.067Z,24.80
2022-10-13T06:02:53.732Z,22.08
2022-10-13T06:05:23.057Z,24.52
2022-10-13T06:07:49.879Z,25.55
2022-10-13T06:10:16.710Z,27.55
2022-10-13T06:12:43.263Z,27.48
2022-10-13T06:15:10.581Z,27.45
2022-10-13T06:17:38.351Z,25.27
2022-10-13T06:20:06.587Z,26.00
2022-10-13T06:22:34.079Z,25.67
2022-10-13T06:25:00.746Z,24.38
2022-10-13T06:27:27.333Z,28.27
2022-10-13T06:29:54.586Z,23.27
2022-10-13T06:32:21.614Z,26.63
2022-10-13T06:34:48.480Z,22.40
2022-10-13T06:37:15.040Z,26.27
2022-10-13T06:39:42.016Z,27.48
2022-10-13T06:42:08.683Z,25.95
2022-10-13T06:44:35.300Z,22.00
2022-10-13T06:47:03.375Z,22.92
2022-10-13T06:49:29.971Z,29.30
2022-10-13T06:51:56.590Z,25.10
2022-10-13T06:54:23.245Z,29.73
2022-10-13T06:56:49.931Z,29.08
2022-10-13T06:59:16.520Z,25.55
2022-10-13T07:01:43.114Z,32.65
2022-10-13T07:04:09.910Z,24.50
2022-10-13T07:06:36.477Z,25.77
2022-10-13T07:09:05.301Z,29.33
2022-10-13T07:11:32.093Z,26.40
2022-10-13T07:13:58.734Z,27.10
2022-10-13T07:16:25.415Z,28.17
2022-10-13T07:18:52.012Z,31.25
2022-10-13T07:21:18.799Z,27.48
2022-10-13T07:23:45.376Z,27.67
2022-10-13T07:26:15.925Z,33.25
2022-10-13T07:28:43.462Z,28.35
2022-10-13T07:31:16.513Z,36.92
2022-10-13T07:33:45.724Z,28.33
2022-10-13T07:36:13.462Z,22.73
2022-10-13T07:38:41.073Z,30.27
2022-10-13T07:41:10.222Z,28.05
2022-10-13T07:43:36.810Z,29.88
2022-10-13T07:46:07.279Z,29.63
2022-10-13T07:48:35.173Z,34.25
2022-10-13T07:51:07.128Z,29.33
2022-10-13T07:53:35.235Z,27.92
2022-10-13T07:56:03.737Z,30.88
2022-10-13T07:58:30.358Z,29.25
2022-10-13T08:01:01.457Z,30.83
2022-10-13T08:03:28.847Z,27.90
2022-10-13T08:05:58.233Z,32.03
2022-10-13T08:08:24.862Z,27.85
2022-10-13T08:10:51.607Z,26.83
2022-10-13T08:13:18.205Z,32.58
2022-10-13T08:15:45.320Z,32.35
2022-10-13T08:18:14.219Z,30.10
2022-10-13T08:20:43.769Z,34.10
2022-10-13T08:23:11.911Z,25.95
2022-10-13T08:25:42.883Z,28.67
2022-10-13T08:28:24.510Z,28.52
2022-10-13T08:30:51.861Z,29.13
2022-10-13T08:33:18.823Z,29.27
2022-10-13T08:35:45.688Z,26.00
2022-10-13T08:38:12.722Z,29.95
2022-10-13T08:40:39.661Z,28.52
2022-10-13T08:43:15.156Z,29.50
2022-10-13T08:45:42.497Z,25.85
2022-10-13T08:48:18.272Z,24.58
2022-10-13T08:50:49.211Z,23.80
2022-10-13T08:53:30.620Z,29.83
2022-10-13T08:56:21.474Z,29.35
2022-10-13T08:58:49.839Z,26.25
2022-10-13T09:01:34.255Z,20.48
2022-10-13T09:04:25.795Z,26.60
2022-10-13T09:06:58.630Z,28.83
2022-10-13T09:09:25.323Z,28.58
2022-10-13T09:11:52.303Z,23.63
2022-10-13T09:14:28.481Z,22.20
2022-10-13T09:16:57.251Z,26.58
2022-10-13T09:19:40.755Z,29.15
2022-10-13T09:22:21.808Z,27.85
2022-10-13T09:25:02.275Z,27.42
2022-10-13T09:27:28.852Z,25.70
2022-10-13T09:29:55.435Z,25.50
2022-10-13T09:32:25.314Z,29.55
2022-10-13T09:34:53.336Z,32.22
2022-10-13T09:37:23.355Z,24.30
2022-10-13T09:40:22.052Z,32.05
2022-10-13T09:42:53.422Z,32.13
2022-10-13T09:45:24.220Z,28.27
2022-10-13T09:47:57.590Z,27.73
2022-10-13T09:50:35.438Z,28.23
2022-10-13T09:53:23.780Z,24.80
2022-10-13T09:56:06.658Z,24.70
2022-10-13T09:58:39.392Z,22.75
2022-10-13T10:01:06.837Z,28.75
2022-10-13T10:03:38.311Z,24.60
2022-10-13T10:06:11.957Z,22.55
2022-10-13T10:09:03.188Z,23.60
2022-10-13T10:11:36.591Z,21.35
2022-10-13T10:14:24.718Z,24.17
2022-10-13T10:17:04.135Z,22.95
2022-10-13T10:19:55.483Z,18.55
2022-10-13T10:22:35.646Z,24.98
2022-10-13T10:25:05.307Z,24.15
2022-10-13T10:27:45.746Z,19.05
2022-10-13T10:30:18.352Z,18.77
2022-10-13T10:32:47.850Z,22.77
2022-10-13T10:35:36.299Z,22.40
2022-10-13T10:38:30.930Z,23.95
2022-10-13T10:41:25.812Z,17.27
2022-10-13T10:44:15.301Z,18.20
2022-10-13T10:46:54.660Z,20.42
2022-10-13T10:49:30.393Z,20.80
2022-10-13T10:51:58.472Z,16.42
2022-10-13T10:54:31.280Z,19.00
2022-10-13T10:57:16.305Z,15.23
2022-10-13T11:00:04.898Z,20.05
2022-10-13T11:02:48.139Z,18.08
2022-10-13T11:05:17.411Z,18.00
2022-10-13T11:07:44.141Z,16.30
2022-10-13T11:10:13.398Z,18.02
2022-10-13T11:12:53.245Z,19.20
2022-10-13T11:15:19.896Z,19.27
2022-10-13T11:17:46.464Z,21.08
2022-10-13T11:20:21.920Z,19.83
2022-10-13T11:23:00.381Z,21.35
2022-10-13T11:25:41.339Z,23.70
2022-10-13T11:28:23.213Z,20.20
2022-10-13T11:31:13.251Z,21.02
2022-10-13T11:33:39.786Z,15.55
2022-10-13T11:36:30.960Z,21.85
2022-10-13T11:39:25.486Z,21.48
2022-10-13T11:42:10.027Z,19.50
2022-10-13T11:45:14.156Z,16.13
2022-10-13T11:47:54.119Z,20.80
2022-10-13T11:50:48.452Z,21.63
2022-10-13T11:53:27.981Z,18.45
2022-10-13T11:56:01.338Z,20.15
2022-10-13T11:58:30.130Z,20.67
2022-10-13T12:01:08.595Z,19.58
2022-10-13T12:03:38.354Z,23.35
2022-10-13T12:06:16.648Z,23.00
2022-10-13T12:08:51.109Z,20.75
2022-10-13T12:11:25.436Z,22.95
2022-10-13T12:13:52.739Z,22.98
2022-10-13T12:16:19.369Z,22.50
2022-10-13T12:18:45.976Z,23.70
2022-10-13T12:21:19.860Z,22.15
2022-10-13T12:23:47.828Z,24.05
2022-10-13T12:26:20.555Z,20.98
2022-10-13T12:29:00.734Z,22.83
2022-10-13T12:31:40.612Z,19.27
2022-10-13T12:34:31.818Z,20.90
2022-10-13T12:37:01.961Z,19.13
2022-10-13T12:39:30.621Z,21.88
2022-10-13T12:41:58.344Z,21.73
2022-10-13T12:44:30.142Z,23.48
2022-10-13T12:46:59.193Z,25.90
2022-10-13T12:49:26.873Z,21.38
2022-10-13T12:52:23.282Z,21.52
2022-10-13T12:54:55.198Z,22.15
2022-10-13T12:57:36.038Z,23.70
2022-10-13T13:00:18.984Z,21.75
2022-10-13T13:02:53.325Z,28.13
2022-10-13T13:05:37.508Z,22.70
2022-10-13T13:08:06.638Z,19.90
2022-10-13T13:10:35.010Z,20.67
2022-10-13T13:13:15.171Z,17.17
2022-10-13T13:15:41.820Z,22.27
2022-10-13T13:18:31.919Z,19.65
2022-10-13T13:20:58.744Z,21.08
2022-10-13T13:23:27.136Z,22.60
2022-10-13T13:26:02.200Z,21.73
2022-10-13T13:28:30.984Z,17.65
2022-10-13T13:30:58.335Z,17.92
2022-10-13T13:33:25.580Z,21.38
2022-10-13T13:35:53.065Z,20.50
2022-10-13T13:38:19.856Z,18.90
2022-10-13T13:40:46.428Z,23.05
2022-10-13T13:43:12.984Z,20.85
2022-10-13T13:45:39.808Z,20.63
2022-10-13T13:48:06.515Z,23.88
2022-10-13T13:50:35.996Z,22.05
2022-10-13T13:53:03.543Z,21.02
2022-10-13T13:55:30.392Z,21.02
2022-10-13T13:57:57.595Z,18.23
2022-10-13T14:00:24.263Z,19.67
2022-10-13T14:02:50.843Z,17.15
2022-10-13T14:05:17.584Z,21.67
2022-10-13T14:07:44.157Z,25.33
2022-10-13T14:10:11.084Z,20.50
2022-10-13T14:12:37.973Z,19.00
2022-10-13T14:15:05.594Z,18.88
2022-10-13T14:17:32.225Z,19.38
2022-10-13T14:19:58.824Z,21.60
2022-10-13T14:22:25.789Z,19.77
2022-10-13T14:24:52.782Z,16.73
2022-10-13T14:27:19.372Z,18.30
2022-10-13T14:29:46.047Z,22.48
2022-10-13T14:32:13.010Z,19.13
2022-10-13T14:34:39.623Z,16.77
2022-10-13T14:37:06.464Z,19.83
2022-10-13T14:39:33.038Z,18.55
2022-10-13T14:41:59.613Z,20.33
2022-10-13T14:44:26.174Z,19.35
2022-10-13T14:46:52.796Z,20.90
2022-10-13T14:49:19.372Z,18.98
2022-10-13T14:51:45.979Z,19.65
2022-10-13T14:54:12.568Z,21.48
2022-10-13T14:56:39.228Z,21.60
2022-10-13T14:59:07.330Z,21.67
2022-10-13T15:01:34.007Z,21.38
2022-10-13T15:04:01.797Z,20.50
2022-10-13T15:06:28.794Z,21.27
2022-10-13T15:08:55.591Z,16.38
2022-10-13T15:11:23.302Z,20.52
2022-10-13T15:13:50.401Z,23.88
2022-10-13T15:16:19.785Z,20.63
2022-10-13T15:18:46.865Z,19.70
2022-10-13T15:21:13.844Z,21.58
2022-10-13T15:23:40.500Z,18.58
2022-10-13T15:26:07.414Z,22.35
2022-10-13T15:28:53.428Z,20.92
2022-10-13T15:31:21.810Z,23.30
2022-10-13T15:33:51.638Z,22.38
2022-10-13T15:36:19.715Z,20.50
2022-10-13T15:38:46.366Z,20.27
2022-10-13T15:41:13.042Z,20.48
2022-10-13T15:43:39.820Z,21.95
2022-10-13T15:46:10.491Z,19.50
2022-10-13T15:48:37.233Z,21.73
2022-10-13T15:51:12.264Z,24.42
2022-10-13T15:53:38.822Z,19.05
2022-10-13T15:56:05.624Z,23.25
2022-10-13T15:58:32.209Z,20.17
2022-10-13T16:00:58.858Z,20.75
2022-10-13T16:03:29.577Z,21.23
2022-10-13T16:05:56.657Z,22.25
2022-10-13T16:08:23.267Z,21.13
2022-10-13T16:10:49.845Z,19.52
2022-10-13T16:13:16.424Z,23.77
2022-10-13T16:15:43.106Z,22.85
2022-10-13T16:18:09.700Z,21.88
2022-10-13T16:20:38.597Z,18.63
2022-10-13T16:23:05.807Z,19.60
2022-10-13T16:25:32.388Z,22.27
2022-10-13T16:27:59.783Z,22.23
2022-10-13T16:30:26.891Z,19.75
2022-10-13T16:32:53.440Z,23.00
2022-10-13T16:35:20.113Z,22.58
2022-10-13T16:37:46.749Z,24.88
2022-10-13T16:40:13.369Z,20.48
2022-10-13T16:42:40.029Z,18.88
2022-10-13T16:45:07.142Z,20.67
2022-10-13T16:47:33.782Z,22.27
2022-10-13T16:50:00.417Z,19.75
2022-10-13T16:52:26.987Z,20.67
2022-10-13T16:54:53.537Z,18.25
2022-10-13T16:57:20.434Z,21.30
2022-10-13T16:59:47.207Z,19.95
2022-10-13T17:02:15.329Z,18.70
2022-10-13T17:04:42.797Z,44.67
2022-10-13T17:07:09.521Z,27.58
2022-10-13T17:09:36.138Z,33.88
2022-10-13T17:12:03.687Z,31.23
2022-10-13T17:14:30.434Z,20.77
2022-10-13T17:16:58.182Z,20.05
2022-10-13T17:19:25.381Z,18.02
2022-10-13T17:21:51.975Z,19.45
2022-10-13T17:24:18.736Z,22.17
2022-10-13T17:26:45.483Z,20.40
2022-10-13T17:29:12.103Z,20.05
2022-10-13T17:31:38.652Z,21.92
2022-10-13T17:34:06.173Z,18.17
2022-10-13T17:36:33.988Z,22.55
2022-10-13T17:39:08.491Z,18.35
2022-10-13T17:41:35.321Z,19.08
2022-10-13T17:44:01.950Z,16.02
2022-10-13T17:46:36.858Z,17.02
2022-10-13T17:49:04.670Z,19.75
2022-10-13T17:51:31.551Z,19.05
2022-10-13T17:53:59.495Z,20.60
2022-10-13T17:56:26.306Z,23.20
2022-10-13T17:58:53.232Z,19.33
2022-10-13T18:01:26.120Z,15.35
2022-10-13T18:03:55.388Z,15.85
2022-10-13T18:06:22.590Z,16.90
2022-10-13T18:08:50.667Z,17.95
2022-10-13T18:11:19.524Z,13.23
2022-10-13T18:13:46.387Z,24.00
2022-10-13T18:16:18.588Z,22.13
2022-10-13T18:18:46.228Z,16.50
2022-10-13T18:21:15.098Z,17.23
2022-10-13T18:23:42.342Z,14.82
2022-10-13T18:26:14.413Z,14.88
2022-10-13T18:28:45.374Z,12.90
2022-10-13T18:31:17.750Z,16.90
2022-10-13T18:33:45.010Z,15.48
2022-10-13T18:36:41.931Z,14.07
2022-10-13T18:39:12.349Z,13.55
2022-10-13T18:41:39.740Z,15.57
2022-10-13T18:44:07.071Z,21.83
2022-10-13T18:46:35.747Z,18.92
2022-10-13T18:49:03.698Z,17.98
2022-10-13T18:51:35.699Z,16.58
2022-10-13T18:54:03.135Z,18.05
2022-10-13T18:56:31.386Z,17.88
2022-10-13T18:59:00.850Z,17.65
2022-10-13T19:01:30.290Z,19.00
2022-10-13T19:03:57.425Z,17.67
2022-10-13T19:06:26.816Z,24.27
2022-10-13T19:09:00.608Z,24.38
2022-10-13T19:11:28.810Z,21.85
2022-10-13T19:13:56.104Z,20.90
2022-10-13T19:16:25.135Z,19.90
2022-10-13T19:18:52.078Z,23.40
2022-10-13T19:21:19.821Z,22.35
2022-10-13T19:23:46.474Z,23.25
2022-10-13T19:26:18.368Z,25.23
2022-10-13T19:28:45.352Z,24.75
2022-10-13T19:31:18.241Z,26.23
2022-10-13T19:33:47.027Z,26.33
2022-10-13T19:36:22.892Z,24.98
2022-10-13T19:38:50.173Z,23.33
2022-10-13T19:41:17.659Z,22.42
2022-10-13T19:43:44.216Z,23.52
2022-10-13T19:46:10.881Z,22.15
2022-10-13T19:48:37.427Z,20.58
2022-10-13T19:51:08.839Z,20.42
2022-10-13T19:53:36.719Z,23.88
2022-10-13T19:56:03.859Z,21.65
2022-10-13T19:58:30.611Z,23.40
2022-10-13T20:01:05.148Z,21.45
2022-10-13T20:03:32.297Z,23.00
2022-10-13T20:05:58.874Z,21.60
2022-10-13T20:08:25.534Z,22.33
2022-10-13T20:10:52.167Z,20.95
2022-10-13T20:13:18.718Z,19.77
2022-10-13T20:15:45.741Z,22.55
2022-10-13T20:18:13.262Z,23.20
2022-10-13T20:20:41.589Z,20.05
2022-10-13T20:23:08.976Z,20.60
2022-10-13T20:25:37.170Z,25.92
2022-10-13T20:28:04.525Z,22.20
2022-10-13T20:30:31.757Z,25.33
2022-10-13T20:32:58.641Z,20.88
2022-10-13T20:35:25.252Z,21.48
2022-10-13T20:37:51.808Z,20.48
2022-10-13T20:40:18.364Z,21.35
2022-10-13T20:42:50.640Z,21.00
2022-10-13T20:45:17.759Z,21.48
2022-10-13T20:47:44.528Z,25.70
2022-10-13T20:50:11.120Z,24.38
2022-10-13T20:52:37.936Z,24.73
2022-10-13T20:55:04.718Z,23.23
2022-10-13T20:57:31.383Z,22.45
2022-10-13T20:59:57.931Z,25.02
2022-10-13T21:02:24.571Z,24.88
2022-10-13T21:04:51.204Z,26.25
2022-10-13T21:07:18.039Z,27.60
2022-10-13T21:09:44.793Z,26.45
2022-10-13T21:12:11.356Z,31.58
2022-10-13T21:14:37.965Z,23.83
2022-10-13T21:17:04.529Z,27.23
2022-10-13T21:19:31.118Z,26.60
2022-10-13T21:21:57.660Z,25.27
2022-10-13T21:24:24.272Z,27.95
2022-10-13T21:26:50.825Z,28.60
2022-10-13T21:29:17.416Z,25.90
2022-10-13T21:31:44.015Z,34.85
2022-10-13T21:34:12.200Z,28.52
2022-10-13T21:36:42.332Z,27.08
2022-10-13T21:39:09.613Z,24.58
2022-10-13T21:41:36.188Z,23.23
2022-10-13T21:44:03.445Z,25.77
2022-10-13T21:46:32.309Z,24.13
2022-10-13T21:49:01.560Z,26.33
2022-10-13T21:51:31.291Z,24.65
2022-10-13T21:54:00.570Z,27.10
2022-10-13T21:56:28.064Z,31.88
2022-10-13T21:58:55.897Z,26.35
2022-10-13T22:01:23.651Z,23.23
2022-10-13T22:03:54.674Z,21.63
2022-10-13T22:06:21.240Z,21.67
2022-10-13T22:08:50.539Z,24.75
2022-10-13T22:11:18.609Z,28.90
2022-10-13T22:13:45.717Z,25.05
2022-10-13T22:16:24.166Z,26.27
2022-10-13T22:18:55.878Z,34.38
2022-10-13T22:21:28.690Z,30.00
2022-10-13T22:24:00.708Z,25.17
2022-10-13T22:26:28.909Z,28.25
2022-10-13T22:28:57.195Z,30.65
2022-10-13T22:31:23.909Z,49.85
2022-10-13T22:33:53.569Z,41.25
2022-10-13T22:36:22.340Z,53.17
2022-10-13T22:38:50.903Z,40.92
2022-10-13T22:41:18.591Z,41.42
2022-10-13T22:43:48.672Z,101.53
2022-10-13T22:46:17.086Z,74.20
2022-10-13T22:48:44.451Z,48.95
2022-10-13T22:51:13.217Z,74.47
2022-10-13T22:53:39.860Z,118.55
2022-10-13T22:56:16.537Z,47.58
2022-10-13T22:58:43.252Z,77.30
2022-10-13T23:01:12.735Z,76.90
2022-10-13T23:03:40.216Z,66.22
2022-10-13T23:06:12.232Z,77.40
2022-10-13T23:08:39.180Z,73.43
2022-10-13T23:11:05.780Z,37.10
2022-10-13T23:13:32.441Z,61.92
2022-10-13T23:16:08.482Z,56.05
2022-10-13T23:18:35.489Z,123.95
2022-10-13T23:21:06.929Z,67.07
2022-10-13T23:23:34.424Z,100.95
2022-10-13T23:26:13.352Z,219.13
2022-10-13T23:28:40.720Z,114.85
2022-10-13T23:31:12.512Z,63.17
2022-10-13T23:33:39.361Z,45.47
2022-10-13T23:36:06.901Z,36.22
2022-10-13T23:38:34.499Z,52.20
2022-10-13T23:41:09.402Z,55.80
2022-10-13T23:43:36.371Z,47.63
2022-10-13T23:46:03.442Z,27.35
2022-10-13T23:48:30.072Z,43.53
2022-10-13T23:50:57.284Z,60.40
2022-10-13T23:53:23.928Z,99.13
2022-10-13T23:55:50.511Z,78.75
2022-10-13T23:58:17.095Z,52.30
